Time;durP1;ratioP1;P1;durP2;ratioP2;P2;SDS_P1;SDS_P2;PMS_P1;PMS_P2;Temp;Humidity;BMP_temperature;BMP_pressure;BME280_temperature;BME280_humidity;BME280_pressure;Samples;Min_cycle;Max_cycle;Signal;HPM_P1;HPM_P2
2021/12/17 00:03:16;;;;;;;;;;;8.30;90.20;;;;;;4979372;28;19925;-89
2021/12/17 00:05:18;;;;;;;;;;;8.30;90.20;;;;;;4975617;28;19933;-89
2021/12/17 00:07:46;;;;;;;;;;;8.20;90.20;;;;;;4963079;28;19926;-90
2021/12/17 00:10:15;;;;;;;;;;;8.20;90.20;;;;;;4976365;28;19933;-90
2021/12/17 00:12:43;;;;;;;;;;;8.20;90.20;;;;;;4959024;28;19926;-89
2021/12/17 00:15:11;;;;;;;;;;;8.10;90.20;;;;;;4975590;28;19933;-90
2021/12/17 00:17:50;;;;;;;;;;;8.10;90.30;;;;;;4966797;28;19933;-89
2021/12/17 00:40:22;;;;;;;;;;;8.00;90.40;;;;;;4975472;28;19926;-89
2021/12/17 00:40:27;;;;;;;;;;;8.00;90.50;;;;;;4957947;28;19926;-90
2021/12/17 00:48:38;;;;;;;;;;;8.00;90.60;;;;;;4941705;28;19934;-90
2021/12/17 00:53:57;;;;;;;;;;;8.00;90.40;;;;;;4985773;28;20665;-90
2021/12/17 00:56:25;;;;;;;;;;;8.00;90.40;;;;;;4975042;28;20315;-89
2021/12/17 00:58:53;;;;;;;;;;;8.00;90.30;;;;;;4979739;28;19926;-90
2021/12/17 01:01:21;;;;;;;;;;;8.00;90.30;;;;;;4974184;28;19926;-89
2021/12/17 01:03:49;;;;;;;;;;;8.00;90.40;;;;;;4963157;28;19930;-90
2021/12/17 01:06:18;;;;;;;;;;;7.90;90.40;;;;;;4976394;28;20617;-90
2021/12/17 01:08:46;;;;;;;;;;;7.90;90.40;;;;;;4995977;28;20537;-90
2021/12/17 01:11:17;;;;;;;;;;;8.00;90.30;;;;;;4971435;28;19934;-90
2021/12/17 01:14:09;;;;;;;;;;;8.00;90.20;;;;;;4958182;28;20383;-89
2021/12/17 01:16:55;;;;;;;;;;;8.00;90.20;;;;;;4975696;28;19927;-90
2021/12/17 01:42:43;;;;;;;;;;;7.70;90.60;;;;;;4879017;29;19950;-89
2021/12/17 01:45:11;;;;;;;;;;;7.70;90.70;;;;;;4881551;29;19935;-89
2021/12/17 01:47:38;;;;;;;;;;;7.70;90.70;;;;;;4850886;29;19928;-89
2021/12/17 02:01:26;;;;;;;;;;;7.50;90.90;;;;;;4874291;29;20015;-88
2021/12/17 02:03:55;;;;;;;;;;;7.50;90.80;;;;;;4862694;29;19944;-89
2021/12/17 02:06:24;;;;;;;;;;;7.40;90.70;;;;;;4878395;29;19928;-89
2021/12/17 02:08:53;;;;;;;;;;;7.30;90.80;;;;;;4874763;29;19927;-89
2021/12/17 02:19:48;;;;;;;;;;;7.20;91.00;;;;;;4896991;29;19935;-89
2021/12/17 02:33:17;;;;;;;;;;;6.80;91.30;;;;;;4862407;29;19951;-89
2021/12/17 02:35:46;;;;;;;;;;;6.80;91.30;;;;;;4858194;29;19935;-89
2021/12/17 02:38:15;;;;;;;;;;;6.70;91.40;;;;;;4866697;29;20020;-89
2021/12/17 02:46:46;;;;;;;;;;;6.60;91.60;;;;;;4879800;29;19934;-89
2021/12/17 02:49:14;;;;;;;;;;;6.50;91.60;;;;;;4879903;29;19928;-89
2021/12/17 02:51:41;;;;;;;;;;;6.40;91.50;;;;;;4888626;29;19927;-89
2021/12/17 02:54:11;;;;;;;;;;;6.30;91.60;;;;;;4880365;29;19939;-89
2021/12/17 02:56:39;;;;;;;;;;;6.30;91.70;;;;;;4894053;29;20532;-89
2021/12/17 02:59:10;;;;;;;;;;;6.20;91.80;;;;;;4903000;29;19939;-88
2021/12/17 03:01:37;;;;;;;;;;;6.10;91.90;;;;;;4903257;28;19933;-88
2021/12/17 03:04:05;;;;;;;;;;;6.00;92.00;;;;;;4979370;28;19934;-88
2021/12/17 03:06:32;;;;;;;;;;;5.90;92.00;;;;;;4978060;28;20303;-88
2021/12/17 03:09:00;;;;;;;;;;;5.80;92.00;;;;;;4941185;29;19933;-88
2021/12/17 03:11:27;;;;;;;;;;;5.80;92.10;;;;;;4952773;29;20009;-88
2021/12/17 03:13:55;;;;;;;;;;;5.70;92.20;;;;;;4960077;28;20025;-88
2021/12/17 03:19:01;;;;;;;;;;;5.50;92.20;;;;;;4969803;28;19926;-88
2021/12/17 03:24:18;;;;;;;;;;;5.30;92.40;;;;;;4959239;28;19933;-88
2021/12/17 03:26:46;;;;;;;;;;;5.30;92.50;;;;;;4965301;28;19925;-87
2021/12/17 03:29:14;;;;;;;;;;;5.30;92.60;;;;;;4978679;28;19933;-88
2021/12/17 03:31:46;;;;;;;;;;;5.20;92.60;;;;;;4948122;28;19933;-88
2021/12/17 03:34:21;;;;;;;;;;;5.20;92.70;;;;;;4976801;28;19949;-88
2021/12/17 03:36:57;;;;;;;;;;;5.20;92.70;;;;;;4965435;28;19937;-88
2021/12/17 03:39:31;;;;;;;;;;;5.20;92.60;;;;;;4958953;28;19930;-88
2021/12/17 03:42:03;;;;;;;;;;;5.10;92.60;;;;;;4958601;28;19930;-88
2021/12/17 03:44:36;;;;;;;;;;;5.10;92.50;;;;;;4939566;29;19927;-88
2021/12/17 03:47:22;;;;;;;;;;;5.00;92.50;;;;;;4939138;29;19926;-88
2021/12/17 03:50:09;;;;;;;;;;;4.90;92.60;;;;;;4953325;29;19926;-88
2021/12/17 03:52:37;;;;;;;;;;;4.80;92.70;;;;;;4970865;28;19934;-88
2021/12/17 03:55:05;;;;;;;;;;;4.80;92.70;;;;;;4939918;29;19933;-87
2021/12/17 03:57:37;;;;;;;;;;;4.80;92.80;;;;;;4938864;29;19934;-88
2021/12/17 04:00:06;;;;;;;;;;;4.70;92.70;;;;;;4940008;28;19926;-88
2021/12/17 04:02:43;;;;;;;;;;;4.60;92.70;;;;;;4975206;28;19926;-88
2021/12/17 04:05:18;;;;;;;;;;;4.50;92.50;;;;;;4958805;28;19926;-88
2021/12/17 04:08:04;;;;;;;;;;;4.30;92.40;;;;;;4959096;28;19926;-88
2021/12/17 04:10:52;;;;;;;;;;;4.20;92.50;;;;;;4945617;28;19933;-88
2021/12/17 04:15:59;;;;;;;;;;;4.00;92.50;;;;;;4943414;29;19927;-88
2021/12/17 04:18:27;;;;;;;;;;;3.80;92.60;;;;;;4959269;28;19926;-88
2021/12/17 04:20:55;;;;;;;;;;;3.80;92.50;;;;;;4950307;29;19927;-87
2021/12/17 04:23:23;;;;;;;;;;;3.70;92.60;;;;;;4939722;29;19934;-86
2021/12/17 04:25:51;;;;;;;;;;;3.50;92.60;;;;;;4937945;29;19953;-87
2021/12/17 04:28:19;;;;;;;;;;;3.40;92.60;;;;;;4939901;29;19927;-87
2021/12/17 04:30:47;;;;;;;;;;;3.40;93.00;;;;;;4931022;29;19926;-87
2021/12/17 04:33:15;;;;;;;;;;;3.30;93.00;;;;;;4965270;28;19933;-87
2021/12/17 04:35:43;;;;;;;;;;;3.30;92.90;;;;;;4955103;28;19926;-87
2021/12/17 04:38:12;;;;;;;;;;;3.20;93.00;;;;;;4954703;28;19926;-87
2021/12/17 04:40:43;;;;;;;;;;;3.10;92.90;;;;;;4938158;29;19930;-85
2021/12/17 04:43:20;;;;;;;;;;;3.00;92.80;;;;;;4939045;29;20392;-86
2021/12/17 04:46:38;;;;;;;;;;;3.00;93.10;;;;;;4923443;28;19927;-86
2021/12/17 04:57:20;;;;;;;;;;;2.80;93.50;;;;;;4973411;28;20316;-86
2021/12/17 04:59:51;;;;;;;;;;;2.80;93.30;;;;;;4971500;28;19926;-86
2021/12/17 05:02:19;;;;;;;;;;;2.70;93.30;;;;;;4963969;28;19926;-86
2021/12/17 05:04:54;;;;;;;;;;;2.70;93.20;;;;;;4950466;29;19933;-86
2021/12/17 05:07:25;;;;;;;;;;;2.70;93.10;;;;;;4952864;28;19926;-86
2021/12/17 05:10:08;;;;;;;;;;;2.60;93.10;;;;;;4944109;28;19950;-87
2021/12/17 05:18:23;;;;;;;;;;;2.30;93.00;;;;;;4957930;28;19926;-85
2021/12/17 05:21:00;;;;;;;;;;;2.30;93.00;;;;;;4939210;29;19934;-85
2021/12/17 05:23:35;;;;;;;;;;;2.20;93.30;;;;;;4952732;28;19926;-85
2021/12/17 05:26:06;;;;;;;;;;;2.20;93.50;;;;;;4960196;28;19926;-86
2021/12/17 05:28:38;;;;;;;;;;;2.20;93.30;;;;;;4958817;28;19926;-84
2021/12/17 05:31:07;;;;;;;;;;;2.10;93.20;;;;;;4959129;28;19933;-85
2021/12/17 05:33:40;;;;;;;;;;;2.00;93.00;;;;;;4953638;29;19927;-85
2021/12/17 05:36:08;;;;;;;;;;;1.90;93.10;;;;;;4958685;28;19926;-85
2021/12/17 05:38:40;;;;;;;;;;;1.90;93.20;;;;;;4963357;28;19933;-83
2021/12/17 05:41:08;;;;;;;;;;;1.90;93.50;;;;;;4959510;28;19926;-85
2021/12/17 05:43:56;;;;;;;;;;;1.90;93.40;;;;;;4959642;28;19933;-85
2021/12/17 05:46:48;;;;;;;;;;;1.80;93.50;;;;;;4978848;28;19925;-84
2021/12/17 05:49:12;;;;;;;;;;;1.80;93.60;;;;;;4959150;28;19936;-84
2021/12/17 05:51:39;;;;;;;;;;;1.80;93.50;;;;;;4994915;28;19925;-83
2021/12/17 05:54:06;;;;;;;;;;;1.70;93.30;;;;;;4979844;28;19934;-85
2021/12/17 05:56:34;;;;;;;;;;;1.60;93.20;;;;;;4986060;28;19998;-85
2021/12/17 05:59:02;;;;;;;;;;;1.60;93.30;;;;;;4946692;28;19930;-86
2021/12/17 06:01:29;;;;;;;;;;;1.50;93.30;;;;;;4976892;28;19937;-85
2021/12/17 06:03:57;;;;;;;;;;;1.40;93.20;;;;;;4963484;28;20315;-85
2021/12/17 06:06:31;;;;;;;;;;;1.40;93.20;;;;;;4962659;28;19933;-85
2021/12/17 06:09:05;;;;;;;;;;;1.30;93.20;;;;;;4957706;28;19948;-85
2021/12/17 06:11:34;;;;;;;;;;;1.30;93.20;;;;;;4963656;28;20296;-85
2021/12/17 06:14:02;;;;;;;;;;;1.30;93.30;;;;;;4948904;28;20367;-85
2021/12/17 06:16:34;;;;;;;;;;;1.30;93.40;;;;;;4961465;28;20339;-86
2021/12/17 06:19:07;;;;;;;;;;;1.20;93.40;;;;;;4961279;28;19929;-84
2021/12/17 06:21:36;;;;;;;;;;;1.20;93.40;;;;;;4954418;28;19927;-85
2021/12/17 06:24:04;;;;;;;;;;;1.20;93.40;;;;;;4957141;28;20383;-85
2021/12/17 06:26:33;;;;;;;;;;;1.20;93.70;;;;;;4943641;28;19949;-85
2021/12/17 06:29:04;;;;;;;;;;;1.20;93.90;;;;;;4964809;28;20299;-86
2021/12/17 06:31:33;;;;;;;;;;;1.20;93.80;;;;;;4960948;28;19953;-85
2021/12/17 06:34:01;;;;;;;;;;;1.20;93.90;;;;;;4972291;28;19932;-85
2021/12/17 06:36:31;;;;;;;;;;;1.30;94.00;;;;;;4975240;28;19936;-84
2021/12/17 06:38:58;;;;;;;;;;;1.30;93.90;;;;;;4967855;28;19926;-85
2021/12/17 06:41:27;;;;;;;;;;;1.20;93.70;;;;;;4966865;28;19930;-85
2021/12/17 06:43:57;;;;;;;;;;;1.20;93.90;;;;;;4967661;28;20315;-85
2021/12/17 06:47:14;;;;;;;;;;;1.20;94.00;;;;;;4955162;28;19935;-85
2021/12/17 07:18:45;;;;;;;;;;;0.60;93.30;;;;;;4914851;29;19935;-83
2021/12/17 07:21:21;;;;;;;;;;;0.60;93.30;;;;;;4898145;29;20032;-84
2021/12/17 07:40:01;;;;;;;;;;;0.50;94.00;;;;;;4857918;29;20398;-79
2021/12/17 07:42:33;;;;;;;;;;;0.50;93.90;;;;;;4857973;29;19935;-82
2021/12/17 07:45:33;;;;;;;;;;;0.40;93.80;;;;;;4859397;29;19928;-82
2021/12/17 07:48:07;;;;;;;;;;;0.50;94.20;;;;;;4860860;29;19999;-82
2021/12/17 07:50:48;;;;;;;;;;;0.50;94.20;;;;;;4864935;29;20330;-82
2021/12/17 07:53:27;;;;;;;;;;;0.50;94.20;;;;;;4862313;29;19932;-82
2021/12/17 07:56:05;;;;;;;;;;;0.50;94.20;;;;;;4877230;29;19935;-82
2021/12/17 07:58:37;;;;;;;;;;;0.60;94.20;;;;;;4873182;29;19928;-82
2021/12/17 08:01:08;;;;;;;;;;;0.60;94.30;;;;;;4872939;29;19935;-82
2021/12/17 08:03:36;;;;;;;;;;;0.60;94.30;;;;;;4862665;29;20306;-82
2021/12/17 08:06:11;;;;;;;;;;;0.60;94.40;;;;;;4875443;29;19928;-82
2021/12/17 08:09:05;;;;;;;;;;;0.60;94.50;;;;;;4866713;29;20436;-82
2021/12/17 08:11:39;;;;;;;;;;;0.70;94.50;;;;;;4871562;29;19927;-82
2021/12/17 08:14:16;;;;;;;;;;;0.70;94.50;;;;;;4916556;28;19926;-82
2021/12/17 08:28:02;;;;;;;;;;;1.00;95.20;;;;;;4963025;28;19926;-82
2021/12/17 08:30:38;;;;;;;;;;;1.10;95.30;;;;;;4956307;28;19929;-82
2021/12/17 08:33:19;;;;;;;;;;;1.20;95.30;;;;;;4964211;28;20407;-80
2021/12/17 08:35:49;;;;;;;;;;;1.20;95.10;;;;;;4970090;28;19926;-80
2021/12/17 08:38:35;;;;;;;;;;;1.20;95.10;;;;;;4960763;28;20311;-80
2021/12/17 08:41:22;;;;;;;;;;;1.20;95.00;;;;;;4957042;28;19934;-80
2021/12/17 08:43:51;;;;;;;;;;;1.30;94.80;;;;;;4956069;28;19930;-80
2021/12/17 08:46:20;;;;;;;;;;;1.20;94.70;;;;;;4969225;28;19934;-81
2021/12/17 08:49:03;;;;;;;;;;;1.20;94.60;;;;;;4967499;28;20408;-80
2021/12/17 08:51:54;;;;;;;;;;;1.20;94.50;;;;;;4971899;28;19926;-80
2021/12/17 08:54:22;;;;;;;;;;;1.10;94.60;;;;;;4973017;28;19926;-80
2021/12/17 08:56:49;;;;;;;;;;;1.10;94.50;;;;;;4953621;28;19926;-80
2021/12/17 08:59:21;;;;;;;;;;;1.10;94.50;;;;;;4982996;28;19930;-80
2021/12/17 09:02:09;;;;;;;;;;;1.00;94.50;;;;;;4959143;28;19926;-80
2021/12/17 09:04:40;;;;;;;;;;;1.00;94.60;;;;;;4972612;28;19926;-80
2021/12/17 09:07:12;;;;;;;;;;;1.00;94.60;;;;;;4956348;28;20328;-82
2021/12/17 09:09:40;;;;;;;;;;;1.00;94.60;;;;;;4962127;28;19934;-81
2021/12/17 09:12:21;;;;;;;;;;;1.00;94.60;;;;;;4956878;28;19925;-81
2021/12/17 09:14:51;;;;;;;;;;;1.00;94.60;;;;;;4961796;28;19941;-81
2021/12/17 09:17:37;;;;;;;;;;;1.00;94.60;;;;;;4988760;28;19933;-81
2021/12/17 09:20:08;;;;;;;;;;;1.00;94.60;;;;;;4959599;28;19937;-81
2021/12/17 09:22:37;;;;;;;;;;;1.00;94.70;;;;;;4970524;28;19927;-81
2021/12/17 09:25:07;;;;;;;;;;;1.00;94.70;;;;;;4994290;28;19926;-81
2021/12/17 09:27:52;;;;;;;;;;;1.00;94.80;;;;;;4966366;28;19952;-81
2021/12/17 09:30:28;;;;;;;;;;;1.10;95.00;;;;;;4988891;28;20329;-82
2021/12/17 09:32:55;;;;;;;;;;;1.30;95.20;;;;;;4979812;28;19926;-81
2021/12/17 09:35:24;;;;;;;;;;;1.30;95.10;;;;;;4980374;28;19933;-81
2021/12/17 09:37:52;;;;;;;;;;;1.30;95.10;;;;;;4987088;28;19930;-81
2021/12/17 09:40:19;;;;;;;;;;;1.40;95.10;;;;;;4957198;28;19933;-81
2021/12/17 09:42:47;;;;;;;;;;;1.50;95.10;;;;;;4964731;28;19933;-81
2021/12/17 09:45:15;;;;;;;;;;;1.60;95.20;;;;;;4981638;28;19927;-81
2021/12/17 09:47:44;;;;;;;;;;;1.70;95.10;;;;;;4978629;28;19926;-82
2021/12/17 09:50:12;;;;;;;;;;;1.70;95.10;;;;;;4979971;28;19949;-81
2021/12/17 09:52:40;;;;;;;;;;;1.80;95.20;;;;;;4973587;28;19926;-81
2021/12/17 09:55:08;;;;;;;;;;;1.90;95.30;;;;;;4984961;28;19926;-82
2021/12/17 09:57:36;;;;;;;;;;;2.00;95.40;;;;;;4982824;28;20593;-81
2021/12/17 10:00:15;;;;;;;;;;;2.10;95.50;;;;;;4974719;28;19926;-82
2021/12/17 10:02:46;;;;;;;;;;;2.20;95.50;;;;;;4982103;28;19925;-81
2021/12/17 10:05:21;;;;;;;;;;;2.30;95.50;;;;;;4972517;28;20421;-81
2021/12/17 10:07:56;;;;;;;;;;;2.30;95.40;;;;;;4980351;28;19934;-81
2021/12/17 10:10:43;;;;;;;;;;;2.40;95.30;;;;;;4993466;28;19926;-88
2021/12/17 10:13:22;;;;;;;;;;;2.40;95.20;;;;;;4976325;28;19926;-81
2021/12/17 10:15:51;;;;;;;;;;;2.40;95.20;;;;;;4997922;28;19934;-81
2021/12/17 10:18:29;;;;;;;;;;;2.50;95.20;;;;;;4981279;28;19933;-81
2021/12/17 10:20:59;;;;;;;;;;;2.50;95.20;;;;;;4988534;28;19926;-81
2021/12/17 10:23:28;;;;;;;;;;;2.60;95.10;;;;;;4986637;28;19936;-81
2021/12/17 10:25:56;;;;;;;;;;;2.60;95.10;;;;;;4979045;28;19933;-81
2021/12/17 10:28:24;;;;;;;;;;;2.60;95.20;;;;;;4975040;28;20427;-81
2021/12/17 10:30:52;;;;;;;;;;;2.70;95.40;;;;;;4982148;28;19926;-81
2021/12/17 10:33:23;;;;;;;;;;;2.80;95.40;;;;;;4970983;28;19936;-81
2021/12/17 10:35:52;;;;;;;;;;;2.90;95.40;;;;;;4986268;28;20288;-81
2021/12/17 10:38:23;;;;;;;;;;;3.00;95.40;;;;;;4979338;28;20331;-81
2021/12/17 10:40:59;;;;;;;;;;;3.20;95.40;;;;;;4987417;28;20461;-81
2021/12/17 10:43:32;;;;;;;;;;;3.30;95.50;;;;;;4981136;28;19936;-81
2021/12/17 10:51:18;;;;;;;;;;;3.70;95.80;;;;;;4974057;28;19925;-81
2021/12/17 10:53:50;;;;;;;;;;;3.90;95.80;;;;;;4952769;28;19933;-81
2021/12/17 10:56:18;;;;;;;;;;;4.00;95.80;;;;;;4991410;28;19933;-81
2021/12/17 10:58:56;;;;;;;;;;;4.20;95.70;;;;;;4981296;28;19926;-81
2021/12/17 11:01:29;;;;;;;;;;;4.30;95.60;;;;;;4958777;28;19926;-79
2021/12/17 11:04:06;;;;;;;;;;;4.50;95.50;;;;;;4975681;28;19929;-79
2021/12/17 11:06:54;;;;;;;;;;;4.70;95.40;;;;;;4960972;28;19937;-81
2021/12/17 11:09:41;;;;;;;;;;;4.80;95.30;;;;;;4986231;28;20292;-80
2021/12/17 11:12:14;;;;;;;;;;;4.90;95.30;;;;;;4959848;28;19926;-80
2021/12/17 11:14:42;;;;;;;;;;;5.00;95.20;;;;;;4972339;28;19926;-81
2021/12/17 11:17:10;;;;;;;;;;;5.10;95.10;;;;;;4984524;28;19926;-80
2021/12/17 11:19:53;;;;;;;;;;;5.20;95.10;;;;;;4975512;28;19934;-81
2021/12/17 11:22:23;;;;;;;;;;;5.30;95.00;;;;;;4986632;28;20403;-81
2021/12/17 11:24:51;;;;;;;;;;;5.40;94.90;;;;;;4979072;28;19933;-80
2021/12/17 11:27:20;;;;;;;;;;;5.50;94.90;;;;;;4976791;28;19926;-81
2021/12/17 11:29:47;;;;;;;;;;;5.60;94.80;;;;;;4969699;28;19930;-80
2021/12/17 11:32:15;;;;;;;;;;;5.70;94.80;;;;;;4986073;28;20307;-81
2021/12/17 11:34:43;;;;;;;;;;;5.70;94.70;;;;;;4979928;28;20292;-81
2021/12/17 11:37:10;;;;;;;;;;;5.80;94.70;;;;;;4983657;28;19933;-81
2021/12/17 11:39:41;;;;;;;;;;;5.80;94.60;;;;;;4981816;28;19933;-81
2021/12/17 11:42:14;;;;;;;;;;;5.80;94.60;;;;;;4977104;28;19926;-82
2021/12/17 11:44:44;;;;;;;;;;;5.90;94.50;;;;;;4982107;28;19934;-83
2021/12/17 11:47:12;;;;;;;;;;;6.00;94.50;;;;;;4967761;28;19933;-83
2021/12/17 11:49:48;;;;;;;;;;;6.00;94.40;;;;;;4980026;28;20238;-81
2021/12/17 11:52:47;;;;;;;;;;;6.10;94.40;;;;;;4971583;28;19926;-81
2021/12/17 11:55:22;;;;;;;;;;;6.20;94.40;;;;;;4917750;28;19926;-82
2021/12/17 11:57:52;;;;;;;;;;;6.20;94.30;;;;;;4972985;28;20453;-81
2021/12/17 12:00:29;;;;;;;;;;;6.30;94.30;;;;;;4973793;28;20387;-82
2021/12/17 12:03:14;;;;;;;;;;;6.30;94.20;;;;;;4973060;28;19944;-82
2021/12/17 12:05:46;;;;;;;;;;;6.40;94.20;;;;;;4973535;28;19937;-82
2021/12/17 12:08:22;;;;;;;;;;;6.50;94.20;;;;;;4972740;28;19937;-82
2021/12/17 12:11:09;;;;;;;;;;;6.60;94.10;;;;;;4973282;28;20392;-81
2021/12/17 12:13:39;;;;;;;;;;;6.70;94.00;;;;;;4954008;28;19927;-82
2021/12/17 12:16:08;;;;;;;;;;;6.70;94.00;;;;;;4954094;28;19926;-82
2021/12/17 12:18:49;;;;;;;;;;;6.80;93.90;;;;;;4920924;29;20311;-82
2021/12/17 12:21:18;;;;;;;;;;;6.80;93.80;;;;;;4953970;28;20392;-82
2021/12/17 12:23:50;;;;;;;;;;;6.80;93.80;;;;;;4973100;28;20003;-82
2021/12/17 12:26:22;;;;;;;;;;;6.90;93.80;;;;;;4973107;28;19930;-82
2021/12/17 12:28:56;;;;;;;;;;;6.90;93.70;;;;;;4973175;28;19926;-82
2021/12/17 12:34:00;;;;;;;;;;;7.00;93.60;;;;;;4973314;28;19941;-82
2021/12/17 12:36:46;;;;;;;;;;;7.00;93.70;;;;;;4939799;28;19936;-82
2021/12/17 12:39:15;;;;;;;;;;;7.00;93.60;;;;;;4972973;28;20293;-82
2021/12/17 12:41:47;;;;;;;;;;;7.10;93.60;;;;;;4972333;28;19926;-82
2021/12/17 12:44:14;;;;;;;;;;;7.20;93.60;;;;;;4955797;28;19933;-83
2021/12/17 12:46:55;;;;;;;;;;;7.20;93.60;;;;;;4982878;28;19933;-86
2021/12/17 12:49:42;;;;;;;;;;;7.30;93.60;;;;;;4975791;28;19926;-82
2021/12/17 12:52:14;;;;;;;;;;;7.30;93.50;;;;;;4969728;28;20384;-82
2021/12/17 12:54:41;;;;;;;;;;;7.30;93.50;;;;;;4954375;29;19942;-83
2021/12/17 12:57:09;;;;;;;;;;;7.30;93.40;;;;;;4991210;28;20392;-84
2021/12/17 12:59:38;;;;;;;;;;;7.40;93.40;;;;;;4972465;28;19926;-83
2021/12/17 13:02:05;;;;;;;;;;;7.40;93.30;;;;;;4988881;28;19926;-86
2021/12/17 13:04:33;;;;;;;;;;;7.30;93.20;;;;;;4992450;28;20384;-84
2021/12/17 13:07:00;;;;;;;;;;;7.40;93.20;;;;;;4979002;28;19925;-84
2021/12/17 13:09:30;;;;;;;;;;;7.40;93.20;;;;;;4988476;28;19925;-84
2021/12/17 13:11:58;;;;;;;;;;;7.40;93.20;;;;;;4981351;28;19939;-83
2021/12/17 13:14:26;;;;;;;;;;;7.40;93.10;;;;;;4989751;28;19930;-83
2021/12/17 13:17:06;;;;;;;;;;;7.40;93.00;;;;;;4961268;28;19933;-83
2021/12/17 13:22:42;;;;;;;;;;;7.30;93.00;;;;;;4988878;28;19937;-84
2021/12/17 13:25:21;;;;;;;;;;;7.30;93.00;;;;;;4970768;28;19925;-83
2021/12/17 13:27:55;;;;;;;;;;;7.30;93.00;;;;;;4986377;28;19933;-84
2021/12/17 13:30:27;;;;;;;;;;;7.30;93.00;;;;;;4977352;28;19937;-84
2021/12/17 13:32:54;;;;;;;;;;;7.30;93.00;;;;;;4948289;28;19933;-84
2021/12/17 13:35:26;;;;;;;;;;;7.30;93.00;;;;;;4989171;28;20304;-84
2021/12/17 13:37:59;;;;;;;;;;;7.30;92.90;;;;;;4988338;28;19948;-83
2021/12/17 13:40:35;;;;;;;;;;;7.30;92.90;;;;;;4953273;28;19927;-87
2021/12/17 13:43:03;;;;;;;;;;;7.30;92.80;;;;;;4967913;28;19933;-83
2021/12/17 13:45:31;;;;;;;;;;;7.30;92.80;;;;;;4990391;28;19926;-83
2021/12/17 13:47:58;;;;;;;;;;;7.30;92.80;;;;;;4989667;28;19930;-82
2021/12/17 13:50:34;;;;;;;;;;;7.30;92.70;;;;;;4981568;28;20387;-88
2021/12/17 13:53:05;;;;;;;;;;;7.30;92.70;;;;;;4991743;28;19926;-83
2021/12/17 13:55:34;;;;;;;;;;;7.30;92.70;;;;;;4975171;28;19977;-83
2021/12/17 13:58:15;;;;;;;;;;;7.30;92.70;;;;;;4984423;28;19933;-83
2021/12/17 14:00:43;;;;;;;;;;;7.30;92.70;;;;;;4962626;28;19926;-83
2021/12/17 14:03:13;;;;;;;;;;;7.30;92.70;;;;;;4990292;28;20434;-83
2021/12/17 14:05:48;;;;;;;;;;;7.30;92.60;;;;;;4972410;28;19930;-83
2021/12/17 14:08:18;;;;;;;;;;;7.30;92.60;;;;;;4986165;28;20387;-83
2021/12/17 14:10:48;;;;;;;;;;;7.30;92.60;;;;;;4979640;28;19926;-83
2021/12/17 14:13:18;;;;;;;;;;;7.30;92.60;;;;;;5004349;28;20300;-83
2021/12/17 14:16:03;;;;;;;;;;;7.30;92.60;;;;;;4988182;28;19926;-83
2021/12/17 14:18:31;;;;;;;;;;;7.20;92.60;;;;;;4946102;28;19933;-83
2021/12/17 14:21:03;;;;;;;;;;;7.20;92.50;;;;;;4991371;28;20415;-83
2021/12/17 14:23:31;;;;;;;;;;;7.10;92.50;;;;;;4983988;28;19933;-84
2021/12/17 14:25:59;;;;;;;;;;;7.10;92.50;;;;;;4983050;28;20004;-82
2021/12/17 14:28:30;;;;;;;;;;;7.10;92.50;;;;;;4975035;28;19933;-82
2021/12/17 14:31:02;;;;;;;;;;;7.10;92.50;;;;;;4979256;28;19933;-82
2021/12/17 14:33:37;;;;;;;;;;;7.00;92.50;;;;;;4993831;28;19929;-83
2021/12/17 14:36:05;;;;;;;;;;;7.00;92.50;;;;;;4963177;28;19961;-83
2021/12/17 14:38:34;;;;;;;;;;;6.90;92.50;;;;;;4965192;28;19934;-82
2021/12/17 14:41:03;;;;;;;;;;;6.90;92.40;;;;;;4956296;28;19937;-82
2021/12/17 14:43:44;;;;;;;;;;;6.80;92.40;;;;;;4973930;28;19933;-83
2021/12/17 14:49:05;;;;;;;;;;;6.70;92.40;;;;;;4957743;28;20030;-82
2021/12/17 15:04:50;;;;;;;;;;;6.60;92.50;;;;;;4954554;28;20331;-83
2021/12/17 15:07:23;;;;;;;;;;;6.60;92.50;;;;;;4955061;28;19930;-82
2021/12/17 15:09:50;;;;;;;;;;;6.50;92.50;;;;;;4972722;28;19938;-84
2021/12/17 15:15:01;;;;;;;;;;;6.50;92.50;;;;;;4971973;28;19930;-84
2021/12/17 15:17:29;;;;;;;;;;;6.50;92.50;;;;;;4971355;28;19945;-85
2021/12/17 15:20:18;;;;;;;;;;;6.40;92.60;;;;;;4999042;28;19930;-85
2021/12/17 15:22:46;;;;;;;;;;;6.40;92.60;;;;;;4960250;28;19930;-84
2021/12/17 15:25:14;;;;;;;;;;;6.50;92.70;;;;;;4985703;28;19933;-84
2021/12/17 15:27:42;;;;;;;;;;;6.40;92.70;;;;;;4973007;28;19927;-84
2021/12/17 15:30:14;;;;;;;;;;;6.40;92.70;;;;;;4960430;28;19941;-85
2021/12/17 15:32:43;;;;;;;;;;;6.40;92.70;;;;;;4971438;28;19953;-84
2021/12/17 15:35:16;;;;;;;;;;;6.40;92.70;;;;;;4970878;28;19930;-85
2021/12/17 15:37:44;;;;;;;;;;;6.40;92.70;;;;;;4971234;28;20300;-85
2021/12/17 15:40:12;;;;;;;;;;;6.40;92.80;;;;;;4971383;28;20710;-85
2021/12/17 15:42:40;;;;;;;;;;;6.30;92.80;;;;;;4967346;28;19934;-83
2021/12/17 15:45:08;;;;;;;;;;;6.40;92.80;;;;;;4971592;28;19934;-84
2021/12/17 15:47:35;;;;;;;;;;;6.30;92.80;;;;;;4970823;28;19930;-84
2021/12/17 15:50:04;;;;;;;;;;;6.40;92.90;;;;;;4965678;28;20679;-85
2021/12/17 15:52:34;;;;;;;;;;;6.40;92.90;;;;;;4970911;28;20403;-84
2021/12/17 15:55:02;;;;;;;;;;;6.40;92.90;;;;;;4971481;28;19934;-84
2021/12/17 15:57:29;;;;;;;;;;;6.40;92.90;;;;;;4971335;28;19930;-84
2021/12/17 15:59:57;;;;;;;;;;;6.30;92.90;;;;;;4970207;28;19952;-83
2021/12/17 16:02:24;;;;;;;;;;;6.30;92.80;;;;;;4970829;28;20280;-83
2021/12/17 16:04:51;;;;;;;;;;;6.30;92.90;;;;;;4952048;29;19931;-86
2021/12/17 16:07:19;;;;;;;;;;;6.30;92.90;;;;;;4959519;28;19929;-83
2021/12/17 16:23:05;;;;;;;;;;;6.30;93.00;;;;;;4956800;28;19941;-79
2021/12/17 16:25:32;;;;;;;;;;;6.30;93.00;;;;;;4957952;28;19930;-78
2021/12/17 16:28:00;;;;;;;;;;;6.30;93.00;;;;;;4969535;28;19935;-76
2021/12/17 16:30:30;;;;;;;;;;;6.30;93.00;;;;;;4971672;28;19941;-76
2021/12/17 16:32:58;;;;;;;;;;;6.30;93.10;;;;;;4956973;28;19938;-79
2021/12/17 16:35:25;;;;;;;;;;;6.20;93.10;;;;;;4970145;28;19938;-77
2021/12/17 16:37:53;;;;;;;;;;;6.20;93.10;;;;;;4968948;28;19953;-79
2021/12/17 16:40:20;;;;;;;;;;;6.20;93.10;;;;;;4969887;28;19934;-77
2021/12/17 16:42:47;;;;;;;;;;;6.20;93.20;;;;;;4970230;28;19930;-77
2021/12/17 16:45:31;;;;;;;;;;;6.20;93.20;;;;;;4960952;28;19926;-77
2021/12/17 16:48:04;;;;;;;;;;;6.20;93.20;;;;;;4962917;28;19934;-76
2021/12/17 16:50:32;;;;;;;;;;;6.20;93.20;;;;;;4969807;28;19930;-77
2021/12/17 16:53:00;;;;;;;;;;;6.20;93.20;;;;;;4969878;28;19934;-77
2021/12/17 16:55:28;;;;;;;;;;;6.10;93.20;;;;;;4968199;28;19946;-77
2021/12/17 16:57:56;;;;;;;;;;;6.10;93.20;;;;;;4984824;28;19941;-77
2021/12/17 17:00:27;;;;;;;;;;;6.20;93.30;;;;;;4965349;28;19937;-77
2021/12/17 17:02:55;;;;;;;;;;;6.10;93.30;;;;;;4970132;28;19930;-78
2021/12/17 17:05:23;;;;;;;;;;;6.10;93.30;;;;;;4969987;28;19930;-79
2021/12/17 17:07:50;;;;;;;;;;;6.10;93.30;;;;;;4970315;28;20335;-80
2021/12/17 17:10:19;;;;;;;;;;;6.10;93.30;;;;;;4969648;28;19933;-79
2021/12/17 17:12:52;;;;;;;;;;;6.10;93.30;;;;;;4944904;28;19930;-79
2021/12/17 17:15:19;;;;;;;;;;;6.00;93.30;;;;;;4966512;28;19930;-79
2021/12/17 17:17:49;;;;;;;;;;;6.10;93.40;;;;;;4936353;28;19941;-78
2021/12/17 17:20:17;;;;;;;;;;;6.10;93.40;;;;;;4962103;28;20261;-78
2021/12/17 17:22:44;;;;;;;;;;;6.10;93.40;;;;;;4967510;28;19941;-78
2021/12/17 17:25:11;;;;;;;;;;;6.10;93.40;;;;;;4968077;28;19930;-78
2021/12/17 17:27:40;;;;;;;;;;;6.10;93.40;;;;;;4968344;28;19930;-78
2021/12/17 17:30:07;;;;;;;;;;;6.10;93.40;;;;;;4969081;28;19929;-79
2021/12/17 17:32:36;;;;;;;;;;;6.10;93.40;;;;;;4984412;28;20311;-79
2021/12/17 17:35:04;;;;;;;;;;;6.00;93.40;;;;;;4968260;28;19953;-78
2021/12/17 17:37:31;;;;;;;;;;;6.00;93.40;;;;;;4972798;28;20383;-78
2021/12/17 17:39:59;;;;;;;;;;;6.00;93.40;;;;;;4967598;28;19934;-78
2021/12/17 17:42:30;;;;;;;;;;;6.00;93.40;;;;;;4968971;28;20383;-79
2021/12/17 17:44:58;;;;;;;;;;;6.00;93.40;;;;;;4946277;28;19937;-79
2021/12/17 17:47:26;;;;;;;;;;;6.00;93.40;;;;;;4950867;28;19926;-78
2021/12/17 17:49:55;;;;;;;;;;;6.00;93.40;;;;;;4968093;28;19926;-79
2021/12/17 17:52:23;;;;;;;;;;;6.00;93.40;;;;;;4965559;28;19930;-79
2021/12/17 17:54:51;;;;;;;;;;;6.00;93.40;;;;;;4963974;28;19930;-78
2021/12/17 17:57:18;;;;;;;;;;;5.90;93.40;;;;;;4950593;28;19930;-77
2021/12/17 17:59:48;;;;;;;;;;;5.80;93.30;;;;;;4968832;28;19930;-78
2021/12/17 18:02:15;;;;;;;;;;;5.80;93.40;;;;;;4967282;28;20299;-79
2021/12/17 18:04:43;;;;;;;;;;;5.80;93.40;;;;;;4950670;28;19930;-78
2021/12/17 18:07:11;;;;;;;;;;;5.80;93.40;;;;;;4965682;28;19934;-84
2021/12/17 18:09:39;;;;;;;;;;;5.80;93.40;;;;;;4971302;28;19941;-78
2021/12/17 18:12:10;;;;;;;;;;;5.80;93.40;;;;;;4970124;28;19930;-79
2021/12/17 18:14:38;;;;;;;;;;;5.80;93.50;;;;;;4970939;28;19930;-78
2021/12/17 18:17:09;;;;;;;;;;;5.70;93.50;;;;;;4953879;28;19930;-79
2021/12/17 18:19:38;;;;;;;;;;;5.70;93.50;;;;;;4970723;28;19937;-79
2021/12/17 18:22:06;;;;;;;;;;;5.70;93.50;;;;;;4961738;28;19929;-78
2021/12/17 18:24:34;;;;;;;;;;;5.70;93.50;;;;;;4972162;28;19945;-79
2021/12/17 18:27:04;;;;;;;;;;;5.70;93.50;;;;;;4954045;28;19945;-78